Time;durP1;ratioP1;P1;durP2;ratioP2;P2;SDS_P1;SDS_P2;PMS_P1;PMS_P2;Temp;Humidity;BMP_temperature;BMP_pressure;BME280_temperature;BME280_humidity;BME280_pressure;Samples;Min_cycle;Max_cycle;Signal;HPM_P1;HPM_P2
2021/01/16 00:02:09;;;;;;;18.02;11.85;;;;;;;1.42;64.96;100020.34;5094322;28;20051;-67
2021/01/16 00:04:36;;;;;;;20.73;11.95;;;;;;;1.42;64.83;100019.50;5093675;28;20131;-67
2021/01/16 00:07:04;;;;;;;20.75;13.45;;;;;;;1.44;64.85;100021.09;5094079;28;20386;-67
2021/01/16 00:09:31;;;;;;;20.30;13.48;;;;;;;1.37;64.97;100019.00;5093124;28;20052;-66
2021/01/16 00:11:58;;;;;;;18.02;12.02;;;;;;;1.39;65.01;100010.16;5094170;28;20516;-65
2021/01/16 00:14:25;;;;;;;20.70;13.18;;;;;;;1.42;65.08;100011.69;5093751;28;20085;-66
2021/01/16 00:16:52;;;;;;;19.55;13.43;;;;;;;1.41;64.89;100000.44;5093867;28;20044;-65
2021/01/16 00:19:18;;;;;;;18.65;12.95;;;;;;;1.45;64.95;100001.06;5094014;28;20131;-67
2021/01/16 00:21:45;;;;;;;19.42;13.13;;;;;;;1.44;64.90;100004.63;5093887;28;20391;-66
2021/01/16 00:24:12;;;;;;;20.38;12.35;;;;;;;1.45;65.06;100004.50;5093745;28;20038;-67
2021/01/16 00:26:39;;;;;;;18.65;13.18;;;;;;;1.45;64.86;100003.69;5093610;28;20042;-65
2021/01/16 00:29:06;;;;;;;21.90;13.15;;;;;;;1.40;64.83;100004.00;5093654;28;20047;-65
2021/01/16 00:31:33;;;;;;;20.98;12.65;;;;;;;1.38;64.84;99994.59;5093890;28;20490;-66
2021/01/16 00:33:59;;;;;;;18.80;12.82;;;;;;;1.40;64.98;100001.41;5093873;28;20078;-65
2021/01/16 00:36:26;;;;;;;19.08;12.07;;;;;;;1.44;64.77;99994.22;5092371;28;20661;-66
2021/01/16 00:38:53;;;;;;;19.70;12.68;;;;;;;1.44;64.70;99989.81;5094192;28;20416;-65
2021/01/16 00:41:19;;;;;;;20.05;13.15;;;;;;;1.42;64.72;99985.66;5094107;28;20459;-66
2021/01/16 00:43:47;;;;;;;20.23;12.55;;;;;;;1.35;64.44;99990.47;5093180;28;20047;-65
2021/01/16 00:46:14;;;;;;;19.52;12.63;;;;;;;1.38;64.60;99989.41;5094259;28;20040;-65
2021/01/16 00:48:40;;;;;;;18.98;12.82;;;;;;;1.34;64.58;99996.59;5094276;28;20580;-65
2021/01/16 00:51:07;;;;;;;24.02;13.05;;;;;;;1.40;64.43;99996.19;5092877;28;20052;-65
2021/01/16 00:53:41;;;;;;;21.05;13.43;;;;;;;1.48;64.53;99995.66;5093483;28;20048;-65
2021/01/16 00:56:11;;;;;;;17.20;12.07;;;;;;;1.54;64.53;100000.44;5093917;28;20060;-65
2021/01/16 00:58:59;;;;;;;18.95;12.90;;;;;;;1.55;64.35;99999.53;5094150;28;20072;-65
2021/01/16 01:01:39;;;;;;;21.25;11.93;;;;;;;1.48;64.35;99996.50;5093185;28;20502;-65
2021/01/16 01:04:09;;;;;;;23.13;14.80;;;;;;;1.42;64.38;99998.66;5094686;28;20039;-66
2021/01/16 01:06:36;;;;;;;17.52;12.15;;;;;;;1.44;64.66;99995.03;5094950;28;20054;-66
2021/01/16 01:09:04;;;;;;;19.65;12.27;;;;;;;1.44;64.37;100004.63;5093644;28;20035;-66
2021/01/16 01:11:30;;;;;;;18.67;12.55;;;;;;;1.46;64.38;100000.13;5092978;28;20566;-66
2021/01/16 01:13:57;;;;;;;19.13;12.57;;;;;;;1.46;64.35;99995.75;5092935;28;20036;-66
2021/01/16 01:16:25;;;;;;;19.88;12.80;;;;;;;1.46;63.93;99992.31;5091934;28;20052;-65
2021/01/16 01:18:51;;;;;;;19.52;13.63;;;;;;;1.31;63.77;99986.41;5092986;28;20044;-65
2021/01/16 01:21:21;;;;;;;19.48;12.70;;;;;;;1.19;64.10;99990.66;5092872;28;20044;-65
2021/01/16 01:23:48;;;;;;;19.58;12.90;;;;;;;1.06;64.24;99983.75;5093009;28;20047;-65
2021/01/16 01:26:15;;;;;;;21.85;12.75;;;;;;;1.03;64.85;99986.59;5092519;28;20036;-65
2021/01/16 01:28:41;;;;;;;21.35;13.60;;;;;;;1.05;64.83;99998.56;5093368;28;20052;-65
2021/01/16 01:31:08;;;;;;;20.83;13.98;;;;;;;0.99;65.05;99993.78;5094201;28;20052;-65
2021/01/16 01:33:36;;;;;;;21.15;14.38;;;;;;;1.09;65.26;99989.59;5093642;28;20072;-66
2021/01/16 01:36:04;;;;;;;20.40;13.38;;;;;;;1.17;65.02;99994.31;5091042;28;20043;-66
2021/01/16 01:38:30;;;;;;;19.48;13.38;;;;;;;1.14;64.81;99997.09;5092627;28;20048;-66
2021/01/16 01:40:59;;;;;;;19.58;12.82;;;;;;;1.15;64.68;99999.63;5092601;28;20093;-66
2021/01/16 01:43:26;;;;;;;19.88;12.60;;;;;;;1.11;64.62;99999.94;5092415;28;20040;-66
2021/01/16 01:45:53;;;;;;;20.02;12.02;;;;;;;1.16;64.61;99997.84;5092256;28;20052;-66
2021/01/16 01:48:19;;;;;;;21.52;13.75;;;;;;;1.19;64.67;99998.47;5092380;28;20059;-66
2021/01/16 01:50:47;;;;;;;21.80;14.20;;;;;;;1.15;64.68;99993.59;5092248;28;20051;-66
2021/01/16 01:53:16;;;;;;;22.08;13.55;;;;;;;1.11;64.62;99989.53;5092249;28;20044;-66
2021/01/16 01:55:45;;;;;;;19.48;13.60;;;;;;;1.16;64.59;99996.06;5091683;28;20047;-66
2021/01/16 01:58:23;;;;;;;21.42;13.52;;;;;;;1.16;64.56;99993.47;5092194;28;20120;-66
2021/01/16 02:00:52;;;;;;;20.45;13.73;;;;;;;1.09;64.74;99996.59;5092264;28;20044;-66
2021/01/16 02:03:22;;;;;;;22.67;13.57;;;;;;;0.94;64.78;99991.47;5090897;28;20092;-65
2021/01/16 02:05:53;;;;;;;20.05;13.68;;;;;;;0.93;65.07;99989.78;5091844;28;20044;-65
2021/01/16 02:08:20;;;;;;;20.25;13.15;;;;;;;0.86;65.20;99993.75;5092090;28;20494;-65
2021/01/16 02:10:47;;;;;;;22.65;13.65;;;;;;;0.92;65.09;99993.34;5091975;28;20044;-65
2021/01/16 02:13:14;;;;;;;21.02;13.68;;;;;;;0.91;65.24;99994.28;5092003;28;20043;-65
2021/01/16 02:15:43;;;;;;;19.48;13.45;;;;;;;0.89;65.13;99998.75;5091686;28;20051;-65
2021/01/16 02:18:20;;;;;;;20.35;13.27;;;;;;;0.94;65.28;99990.66;5091885;28;20040;-65
2021/01/16 02:20:48;;;;;;;23.35;14.25;;;;;;;0.85;65.35;99994.66;5092007;28;20048;-65
2021/01/16 02:23:41;;;;;;;22.63;13.52;;;;;;;0.82;65.46;99983.66;5091732;28;20048;-65
2021/01/16 02:26:23;;;;;;;20.40;13.15;;;;;;;0.79;65.28;99983.84;5091477;28;20111;-65
2021/01/16 02:28:53;;;;;;;19.58;13.15;;;;;;;0.72;65.56;99983.41;5095624;28;20056;-65
2021/01/16 02:31:21;;;;;;;20.50;13.23;;;;;;;0.68;65.78;99976.75;5095800;28;20052;-65
2021/01/16 02:33:51;;;;;;;20.60;12.73;;;;;;;0.72;65.91;99983.41;5095862;28;20478;-66
2021/01/16 02:36:27;;;;;;;19.13;13.13;;;;;;;0.71;65.82;99982.56;5095441;28;20494;-66
2021/01/16 02:39:06;;;;;;;19.83;13.23;;;;;;;0.60;66.06;99973.81;5096043;28;20051;-65
2021/01/16 02:41:38;;;;;;;18.85;12.82;;;;;;;0.55;66.13;99983.69;5095526;28;20485;-65
2021/01/16 02:44:18;;;;;;;18.02;12.38;;;;;;;0.50;66.33;99981.38;5095556;28;20040;-65
2021/01/16 02:46:48;;;;;;;22.45;12.82;;;;;;;0.45;66.48;99973.88;5095545;28;20044;-65
2021/01/16 02:49:37;;;;;;;22.23;13.13;;;;;;;0.48;66.73;99980.63;5095540;28;20494;-66
2021/01/16 02:52:06;;;;;;;20.40;12.65;;;;;;;0.40;66.44;99975.94;5095590;28;20604;-66
2021/01/16 02:54:38;;;;;;;21.35;12.60;;;;;;;0.36;66.80;99981.44;5095167;28;20040;-66
2021/01/16 02:57:06;;;;;;;20.77;13.00;;;;;;;0.33;67.00;99982.47;5095429;28;20036;-65
2021/01/16 02:59:38;;;;;;;21.88;13.35;;;;;;;0.33;66.89;99976.44;5095332;28;20486;-65
2021/01/16 03:02:08;;;;;;;21.45;12.77;;;;;;;0.25;66.88;99979.53;5095333;28;20409;-65
2021/01/16 03:04:36;;;;;;;21.02;12.60;;;;;;;0.10;67.02;99985.72;5094970;28;20054;-65
2021/01/16 03:07:04;;;;;;;21.10;12.55;;;;;;;0.00;67.21;99990.66;5095102;28;20067;-65
2021/01/16 03:09:33;;;;;;;20.50;12.38;;;;;;;-0.04;67.40;99987.41;5094986;28;20044;-65
2021/01/16 03:12:01;;;;;;;17.92;11.77;;;;;;;-0.06;67.48;99981.47;5095073;28;20047;-65
2021/01/16 03:14:29;;;;;;;21.10;12.70;;;;;;;-0.14;67.59;99988.91;5094676;28;20044;-65
2021/01/16 03:17:10;;;;;;;19.58;13.40;;;;;;;-0.20;67.67;99989.31;5094960;28;20040;-65
2021/01/16 03:19:39;;;;;;;20.65;12.07;;;;;;;-0.27;67.76;99994.03;5094934;28;20040;-65
2021/01/16 03:22:16;;;;;;;21.60;12.52;;;;;;;-0.32;67.87;99992.66;5093582;28;20052;-65
2021/01/16 03:24:44;;;;;;;21.30;13.90;;;;;;;-0.38;67.83;99993.84;5094541;28;20040;-65
2021/01/16 03:27:11;;;;;;;23.80;13.50;;;;;;;-0.39;68.07;99993.97;5094919;28;20043;-65
2021/01/16 03:29:38;;;;;;;19.77;12.50;;;;;;;-0.49;68.28;100004.09;5094843;28;20044;-65
2021/01/16 03:32:08;;;;;;;19.45;12.80;;;;;;;-0.41;68.26;99995.78;5094805;28;20040;-65
2021/01/16 03:34:35;;;;;;;18.85;12.35;;;;;;;-0.33;68.38;99994.44;5094604;28;20505;-65
2021/01/16 03:37:03;;;;;;;19.05;13.05;;;;;;;-0.30;68.30;99990.78;5094664;28;20040;-66
2021/01/16 03:39:29;;;;;;;19.92;12.93;;;;;;;-0.31;68.18;99995.16;5093657;28;20521;-65
2021/01/16 03:41:56;;;;;;;19.23;13.73;;;;;;;-0.33;68.25;99998.75;5094589;28;20059;-65
2021/01/16 03:44:23;;;;;;;20.50;12.27;;;;;;;-0.43;68.35;99998.50;5094252;28;20043;-66
2021/01/16 03:46:50;;;;;;;20.17;12.05;;;;;;;-0.41;68.36;99999.25;5094444;28;20055;-65
2021/01/16 03:49:18;;;;;;;20.70;13.13;;;;;;;-0.37;68.22;100000.75;5094479;28;20083;-65
2021/01/16 03:51:45;;;;;;;20.35;12.85;;;;;;;-0.42;68.28;99989.78;5093071;28;20048;-65
2021/01/16 03:54:12;;;;;;;20.98;12.95;;;;;;;-0.49;68.23;99988.50;5094131;28;20047;-65
2021/01/16 03:56:39;;;;;;;21.95;12.82;;;;;;;-0.45;68.17;99994.31;5094237;28;20044;-65
2021/01/16 03:59:06;;;;;;;21.77;13.82;;;;;;;-0.51;68.23;99990.34;5094438;28;20402;-65
2021/01/16 04:01:34;;;;;;;19.38;13.07;;;;;;;-0.49;68.36;99998.88;5094369;28;20047;-65
2021/01/16 04:04:01;;;;;;;20.85;13.32;;;;;;;-0.46;68.44;100003.88;5094317;28;20079;-65
2021/01/16 04:06:29;;;;;;;21.55;13.70;;;;;;;-0.52;68.71;99988.69;5093896;28;20047;-65
2021/01/16 04:08:56;;;;;;;23.85;13.00;;;;;;;-0.46;68.65;99996.09;5094157;28;20413;-66
2021/01/16 04:11:22;;;;;;;19.90;13.05;;;;;;;-0.43;68.69;99990.72;5094517;28;20055;-65
2021/01/16 04:13:49;;;;;;;19.38;12.75;;;;;;;-0.38;68.66;99995.63;5094112;28;20040;-65
2021/01/16 04:16:16;;;;;;;20.50;12.77;;;;;;;-0.28;68.43;99996.75;5093709;28;20052;-65
2021/01/16 04:18:43;;;;;;;21.17;12.85;;;;;;;-0.42;68.69;99994.97;5094298;28;20079;-66
2021/01/16 04:21:09;;;;;;;22.73;13.63;;;;;;;-0.44;68.75;100001.19;5092768;28;20135;-66
2021/01/16 04:23:37;;;;;;;21.70;13.70;;;;;;;-0.43;68.84;99995.91;5093679;28;20515;-65
2021/01/16 04:26:04;;;;;;;18.60;12.20;;;;;;;-0.34;68.70;99990.13;5093738;28;20052;-65
2021/01/16 04:28:31;;;;;;;20.45;13.70;;;;;;;-0.26;68.73;100002.66;5093876;28;20047;-65
2021/01/16 04:30:57;;;;;;;22.65;13.07;;;;;;;-0.31;68.61;99997.75;5093764;28;20097;-65
2021/01/16 04:33:24;;;;;;;26.13;14.57;;;;;;;-0.36;68.59;99989.41;5093778;28;20032;-65
2021/01/16 04:35:51;;;;;;;23.77;14.90;;;;;;;-0.40;68.67;99990.53;5093644;28;20075;-65
2021/01/16 04:38:18;;;;;;;25.48;15.05;;;;;;;-0.45;68.70;99992.59;5093747;28;20505;-64
2021/01/16 04:40:46;;;;;;;23.50;15.20;;;;;;;-0.49;68.80;99985.91;5093938;28;20437;-64
2021/01/16 04:43:13;;;;;;;22.08;14.85;;;;;;;-0.53;68.82;100002.59;5093533;28;20040;-64
2021/01/16 04:45:41;;;;;;;21.13;14.35;;;;;;;-0.56;68.71;100001.00;5093350;28;20040;-64
2021/01/16 04:48:08;;;;;;;23.05;12.95;;;;;;;-0.60;68.94;100003.88;5092434;28;20048;-64
2021/01/16 04:50:39;;;;;;;24.95;14.30;;;;;;;-0.57;68.77;100004.53;5093292;28;20657;-64
2021/01/16 04:53:09;;;;;;;21.50;12.35;;;;;;;-0.56;68.83;100006.22;5093403;28;20051;-65
2021/01/16 04:55:38;;;;;;;21.75;13.60;;;;;;;-0.51;68.59;100000.72;5093410;28;20497;-65
2021/01/16 04:58:07;;;;;;;22.67;13.02;;;;;;;-0.52;68.47;100005.09;5093614;28;20052;-65
2021/01/16 05:00:37;;;;;;;21.55;13.80;;;;;;;-0.47;68.36;100003.97;5094225;28;20413;-65
2021/01/16 05:03:07;;;;;;;19.83;12.40;;;;;;;-0.46;68.56;100001.28;5094842;28;20063;-65
2021/01/16 05:05:37;;;;;;;19.90;12.18;;;;;;;-0.45;68.35;100002.13;5093113;28;20529;-65
2021/01/16 05:08:04;;;;;;;20.30;12.48;;;;;;;-0.53;68.26;99995.63;5092960;28;20071;-65
2021/01/16 05:10:36;;;;;;;21.60;13.30;;;;;;;-0.50;68.40;99994.59;5093028;28;20048;-65
2021/01/16 05:13:12;;;;;;;20.35;13.20;;;;;;;-0.57;68.38;99995.91;5091796;28;20043;-65
2021/01/16 05:15:40;;;;;;;23.08;13.65;;;;;;;-0.53;68.36;99994.81;5092639;28;20454;-66
2021/01/16 05:18:09;;;;;;;20.90;13.27;;;;;;;-0.48;68.28;100000.56;5092982;28;20067;-66
2021/01/16 05:20:38;;;;;;;20.85;13.15;;;;;;;-0.46;68.17;99995.25;5092817;28;20048;-66
2021/01/16 05:23:15;;;;;;;19.73;12.93;;;;;;;-0.53;68.12;99987.03;5092868;28;20110;-66
2021/01/16 05:25:43;;;;;;;;;;;;;;;-0.55;68.18;99987.09;5093021;28;20498;-66
2021/01/16 05:28:12;;;;;;;18.65;12.10;;;;;;;-0.52;68.21;99983.47;5092780;28;19959;-66
2021/01/16 05:30:51;;;;;;;18.33;12.65;;;;;;;-0.57;68.04;99975.16;5091496;28;20051;-66
2021/01/16 05:33:20;;;;;;;20.23;12.82;;;;;;;-0.51;68.22;99966.97;5092863;28;20043;-66
2021/01/16 05:35:49;;;;;;;18.92;12.68;;;;;;;-0.34;68.05;99969.34;5090964;28;20048;-66
2021/01/16 05:38:17;;;;;;;21.17;13.20;;;;;;;-0.33;67.73;99972.78;5092601;28;20044;-66
2021/01/16 05:40:44;;;;;;;19.15;12.45;;;;;;;-0.35;67.82;99972.06;5092512;28;20085;-66
2021/01/16 05:43:12;;;;;;;17.73;12.30;;;;;;;-0.44;67.82;99972.63;5092594;28;20036;-66
2021/01/16 05:45:40;;;;;;;23.23;13.38;;;;;;;-0.44;67.84;99980.41;5092371;28;20055;-66
2021/01/16 05:48:08;;;;;;;19.48;12.88;;;;;;;-0.39;67.84;99975.78;5092434;28;20044;-66
2021/01/16 05:50:39;;;;;;;20.42;12.68;;;;;;;-0.54;67.88;99970.56;5092324;28;20044;-66
2021/01/16 05:53:06;;;;;;;18.75;12.52;;;;;;;-0.47;68.10;99968.44;5091209;28;20048;-65
2021/01/16 05:55:34;;;;;;;23.33;13.40;;;;;;;-0.48;68.16;99971.16;5091094;28;20055;-64
2021/01/16 05:58:05;;;;;;;20.75;13.18;;;;;;;-0.51;68.11;99973.00;5092662;28;20073;-65
2021/01/16 06:00:37;;;;;;;19.88;12.77;;;;;;;-0.44;67.94;99970.88;5092800;28;20055;-65
2021/01/16 06:03:07;;;;;;;19.92;13.07;;;;;;;-0.41;67.81;99965.47;5092648;28;20058;-65
2021/01/16 06:05:35;;;;;;;22.58;13.32;;;;;;;-0.40;67.78;99976.72;5093099;28;20496;-65
2021/01/16 06:08:03;;;;;;;21.30;13.63;;;;;;;-0.36;67.93;99970.41;5092261;28;20062;-65
2021/01/16 06:10:34;;;;;;;22.27;13.75;;;;;;;-0.27;67.67;99969.81;5092355;28;20048;-65
2021/01/16 06:13:14;;;;;;;23.52;14.18;;;;;;;-0.18;67.56;99971.00;5092303;28;20048;-65
2021/01/16 06:15:45;;;;;;;23.23;12.98;;;;;;;-0.20;67.48;99968.50;5091802;28;20521;-65
2021/01/16 06:18:17;;;;;;;28.73;14.30;;;;;;;-0.14;67.25;99962.09;5092115;28;20501;-65
2021/01/16 06:20:48;;;;;;;21.52;13.63;;;;;;;-0.17;67.29;99965.69;5092134;28;20048;-65
2021/01/16 06:23:18;;;;;;;19.58;12.32;;;;;;;-0.28;67.14;99968.16;5092134;28;20067;-65
2021/01/16 06:25:54;;;;;;;21.67;12.48;;;;;;;-0.31;67.17;99968.34;5090823;28;20494;-65
2021/01/16 06:28:24;;;;;;;20.27;13.30;;;;;;;-0.35;67.61;99972.88;5092331;28;20117;-65
2021/01/16 06:30:56;;;;;;;21.20;13.48;;;;;;;-0.34;67.71;99968.53;5092584;28;20417;-65
2021/01/16 06:33:30;;;;;;;21.58;12.85;;;;;;;-0.27;67.49;99978.44;5092363;28;20055;-65
2021/01/16 06:36:03;;;;;;;21.45;13.73;;;;;;;-0.33;67.64;99976.25;5091842;28;20036;-65
2021/01/16 06:38:32;;;;;;;20.08;13.00;;;;;;;-0.31;67.72;99974.38;5092356;28;20051;-65
2021/01/16 06:41:12;;;;;;;19.00;12.93;;;;;;;-0.24;67.58;99974.00;5091785;28;20142;-65
2021/01/16 06:43:41;;;;;;;21.02;12.60;;;;;;;-0.16;67.56;99971.75;5092474;28;20044;-65
2021/01/16 06:46:11;;;;;;;17.98;11.93;;;;;;;-0.16;67.26;99969.16;5091823;28;20044;-65
2021/01/16 06:48:40;;;;;;;19.48;12.10;;;;;;;-0.15;67.04;99973.41;5091952;28;20070;-65
2021/01/16 06:51:12;;;;;;;17.75;12.35;;;;;;;-0.11;67.08;99973.13;5091874;28;20040;-65
2021/01/16 06:53:39;;;;;;;19.63;13.00;;;;;;;-0.07;66.82;99966.81;5092034;28;20044;-65
2021/01/16 06:56:08;;;;;;;20.30;12.38;;;;;;;-0.18;66.76;99968.41;5090212;28;20043;-66
2021/01/16 06:58:40;;;;;;;19.55;12.88;;;;;;;-0.18;67.07;99961.44;5091806;28;20398;-65
2021/01/16 07:01:08;;;;;;;23.10;13.35;;;;;;;-0.20;67.09;99972.88;5092180;28;20494;-66
2021/01/16 07:03:42;;;;;;;19.90;13.27;;;;;;;-0.23;66.81;99966.09;5092045;28;20048;-65
2021/01/16 07:06:11;;;;;;;18.67;12.45;;;;;;;-0.20;67.10;99965.91;5091651;28;20040;-66
2021/01/16 07:08:42;;;;;;;18.67;12.13;;;;;;;-0.25;66.58;99960.16;5091801;28;20043;-65
2021/01/16 07:11:10;;;;;;;20.30;12.85;;;;;;;-0.27;66.68;99959.41;5091950;28;20661;-65
2021/01/16 07:13:41;;;;;;;19.02;11.63;;;;;;;-0.15;66.56;99960.44;5091876;28;20046;-65
2021/01/16 07:16:08;;;;;;;20.27;12.13;;;;;;;-0.17;66.02;99960.50;5095312;28;20048;-65
2021/01/16 07:18:36;;;;;;;18.38;11.77;;;;;;;-0.17;65.98;99950.09;5095157;28;20052;-65
2021/01/16 07:21:04;;;;;;;19.13;11.75;;;;;;;-0.22;66.08;99962.56;5095205;28;20485;-65
2021/01/16 07:23:33;;;;;;;18.70;11.85;;;;;;;-0.16;66.21;99951.78;5095177;28;20044;-66
2021/01/16 07:26:00;;;;;;;17.10;11.27;;;;;;;-0.10;66.16;99954.00;5094833;28;20422;-65
2021/01/16 07:28:27;;;;;;;20.38;12.50;;;;;;;-0.08;65.81;99948.72;5095237;28;20040;-65
2021/01/16 07:30:55;;;;;;;18.15;12.10;;;;;;;-0.12;65.75;99944.66;5095126;28;20115;-65
2021/01/16 07:33:28;;;;;;;17.65;11.77;;;;;;;-0.08;65.72;99953.91;5095046;28;20414;-65
2021/01/16 07:35:56;;;;;;;18.60;12.10;;;;;;;-0.11;65.78;99948.91;5094909;28;20032;-65
2021/01/16 07:38:27;;;;;;;19.35;12.00;;;;;;;-0.04;65.76;99948.44;5095013;28;20050;-65
2021/01/16 07:40:56;;;;;;;19.48;11.98;;;;;;;0.04;65.49;99955.75;5095022;28;20044;-65
2021/01/16 07:43:47;;;;;;;19.17;11.88;;;;;;;0.03;65.22;99948.84;5095017;28;20036;-66
2021/01/16 07:46:19;;;;;;;17.15;12.35;;;;;;;0.00;65.34;99951.66;5094588;28;20513;-65
2021/01/16 07:48:50;;;;;;;17.30;12.25;;;;;;;-0.09;65.26;99952.22;5095201;28;20044;-65
2021/01/16 07:51:18;;;;;;;15.65;11.00;;;;;;;-0.11;65.50;99952.34;5095206;28;20410;-65
2021/01/16 07:53:46;;;;;;;21.00;12.02;;;;;;;-0.03;65.57;99947.50;5094825;28;20503;-65
2021/01/16 07:56:23;;;;;;;18.05;10.80;;;;;;;0.10;65.19;99949.31;5092878;28;20052;-65
2021/01/16 07:59:16;;;;;;;18.50;12.30;;;;;;;0.08;64.99;99951.16;5093350;28;20052;-65
2021/01/16 08:02:10;;;;;;;19.83;12.15;;;;;;;0.07;64.94;99950.31;5094869;28;20040;-65
2021/01/16 08:04:42;;;;;;;17.27;12.30;;;;;;;0.04;65.05;99942.75;5060259;28;20055;-65
2021/01/16 08:07:19;;;;;;;20.15;11.88;;;;;;;-0.03;65.11;99946.66;5094617;28;20383;-65
2021/01/16 08:09:57;;;;;;;16.63;12.00;;;;;;;0.03;65.05;99954.06;5095057;28;20062;-66
2021/01/16 08:12:26;;;;;;;17.60;11.20;;;;;;;0.02;64.71;99951.56;5094491;28;20113;-65
2021/01/16 08:14:54;;;;;;;17.70;10.88;;;;;;;0.02;64.97;99952.38;5094130;28;20185;-65
2021/01/16 08:17:25;;;;;;;18.90;11.93;;;;;;;-0.03;65.08;99950.09;5092933;28;20063;-66
2021/01/16 08:20:16;;;;;;;18.65;12.23;;;;;;;0.02;64.81;99960.19;5094279;28;20051;-66
2021/01/16 08:22:44;;;;;;;20.65;12.40;;;;;;;-0.03;64.80;99957.06;5094677;28;20397;-66
2021/01/16 08:25:13;;;;;;;18.05;11.75;;;;;;;0.05;65.01;99960.00;5093623;28;20039;-66
2021/01/16 08:27:41;;;;;;;19.80;12.05;;;;;;;0.09;65.04;99960.66;5094471;28;20686;-65
2021/01/16 08:30:13;;;;;;;17.30;11.13;;;;;;;0.09;65.11;99958.88;5094033;28;20121;-66
2021/01/16 08:32:55;;;;;;;19.40;11.55;;;;;;;0.12;64.89;99957.81;5094088;28;20101;-66
2021/01/16 08:35:24;;;;;;;18.05;11.88;;;;;;;0.06;64.83;99948.66;5093563;28;20040;-66
2021/01/16 08:37:51;;;;;;;17.25;11.18;;;;;;;0.14;65.09;99950.78;5093628;28;20048;-66
2021/01/16 08:40:34;;;;;;;17.25;11.20;;;;;;;0.27;64.85;99943.84;5093799;28;20055;-66
2021/01/16 08:43:01;;;;;;;17.58;11.77;;;;;;;0.38;64.51;99938.78;5094028;28;20545;-66
2021/01/16 08:45:29;;;;;;;19.33;11.77;;;;;;;0.33;63.94;99942.63;5093260;28;20032;-66
2021/01/16 08:47:57;;;;;;;20.25;11.63;;;;;;;0.33;64.28;99946.06;5093392;28;20136;-66
2021/01/16 08:50:29;;;;;;;14.80;9.95;;;;;;;0.21;63.27;99945.09;5093632;28;20519;-66
2021/01/16 08:52:56;;;;;;;13.75;9.73;;;;;;;0.13;63.70;99949.13;5093338;28;20044;-66
2021/01/16 08:55:28;;;;;;;14.38;9.70;;;;;;;0.16;64.06;99944.56;5093120;28;20067;-66
2021/01/16 08:58:10;;;;;;;13.50;8.95;;;;;;;0.24;63.88;99936.25;5093566;28;20040;-65
2021/01/16 09:00:39;;;;;;;37.00;21.52;;;;;;;0.38;63.82;99932.75;5094457;28;20062;-66
2021/01/16 09:03:17;;;;;;;19.88;13.13;;;;;;;0.48;63.30;99939.00;5094606;28;20533;-65
2021/01/16 09:05:45;;;;;;;17.13;11.10;;;;;;;0.56;63.19;99935.91;5092973;28;20043;-66
2021/01/16 09:08:20;;;;;;;13.45;9.45;;;;;;;0.64;62.70;99928.44;5093057;28;20040;-66
2021/01/16 09:10:47;;;;;;;10.73;8.35;;;;;;;0.70;62.44;99928.03;5092895;28;20048;-66
2021/01/16 09:13:25;;;;;;;12.35;8.70;;;;;;;0.70;62.26;99930.63;5092744;28;20040;-64
2021/01/16 09:15:53;;;;;;;12.00;7.70;;;;;;;0.71;62.12;99930.53;5092549;28;20150;-64
2021/01/16 09:18:25;;;;;;;13.85;9.05;;;;;;;0.77;62.08;99938.84;5093077;28;20044;-64
2021/01/16 09:20:58;;;;;;;18.38;11.77;;;;;;;0.82;61.90;99926.38;5092860;28;20036;-64
2021/01/16 09:23:27;;;;;;;20.10;14.00;;;;;;;0.83;62.03;99925.44;5092902;28;20040;-64
2021/01/16 09:25:55;;;;;;;16.67;11.18;;;;;;;0.89;61.61;99925.00;5092433;28;20520;-66
2021/01/16 09:28:47;;;;;;;13.85;9.75;;;;;;;0.93;61.68;99922.09;5092772;28;20040;-65
2021/01/16 09:31:23;;;;;;;13.20;8.88;;;;;;;0.96;61.77;99921.91;5091559;28;20048;-65
2021/01/16 09:33:52;;;;;;;13.35;8.90;;;;;;;0.94;61.51;99915.16;5091527;28;20138;-65
2021/01/16 09:36:45;;;;;;;13.52;8.75;;;;;;;0.92;60.57;99919.59;5091890;28;20114;-65
2021/01/16 09:39:18;;;;;;;10.82;7.85;;;;;;;0.92;60.59;99912.63;5092792;28;20048;-65
2021/01/16 09:41:46;;;;;;;11.70;8.32;;;;;;;0.89;60.81;99918.03;5091674;28;20401;-65
2021/01/16 09:44:13;;;;;;;13.13;9.07;;;;;;;0.88;60.71;99918.97;5092359;28;20076;-65
2021/01/16 09:46:41;;;;;;;13.45;8.65;;;;;;;0.91;60.63;99916.19;5092709;28;20414;-65
2021/01/16 09:49:10;;;;;;;10.75;8.02;;;;;;;0.98;60.50;99925.25;5091157;28;20051;-65
2021/01/16 09:51:37;;;;;;;15.10;10.00;;;;;;;0.99;60.56;99923.47;5092378;28;20138;-65
2021/01/16 09:54:09;;;;;;;10.55;8.27;;;;;;;0.96;59.28;99910.66;5092406;28;20047;-66
2021/01/16 09:56:43;;;;;;;10.50;7.22;;;;;;;0.86;60.15;99909.63;5091182;28;20052;-65
2021/01/16 09:59:15;;;;;;;8.70;6.25;;;;;;;0.82;58.94;99902.97;5092307;28;20047;-65
2021/01/16 10:01:43;;;;;;;10.52;6.47;;;;;;;0.71;59.44;99907.09;5092378;28;20048;-65
2021/01/16 10:04:22;;;;;;;9.98;7.07;;;;;;;0.60;58.85;99908.75;5092042;28;20050;-65
2021/01/16 10:06:50;;;;;;;9.45;7.28;;;;;;;0.58;59.82;99898.47;5092187;28;20075;-65
2021/01/16 10:09:21;;;;;;;9.77;6.95;;;;;;;0.75;59.83;99894.72;5092088;28;20458;-65
2021/01/16 10:11:48;;;;;;;10.98;7.10;;;;;;;0.77;59.49;99895.44;5090810;28;20048;-65
2021/01/16 10:14:18;;;;;;;17.42;12.30;;;;;;;0.82;59.53;99898.59;5092059;28;20032;-66
2021/01/16 10:16:46;;;;;;;14.43;8.52;;;;;;;0.85;58.99;99895.75;5092348;28;20439;-67
2021/01/16 10:19:14;;;;;;;22.10;11.32;;;;;;;1.00;59.30;99893.88;5092067;28;20450;-65
2021/01/16 10:21:50;;;;;;;9.30;7.00;;;;;;;1.13;59.16;99894.69;5090636;28;20054;-66
2021/01/16 10:24:19;;;;;;;8.70;6.47;;;;;;;1.24;58.92;99896.56;5091548;28;20379;-67
2021/01/16 10:26:47;;;;;;;8.60;5.68;;;;;;;1.30;58.53;99890.91;5091624;28;20051;-68
2021/01/16 10:29:20;;;;;;;8.77;6.40;;;;;;;1.31;58.05;99890.00;5091843;28;20040;-68
2021/01/16 10:31:47;;;;;;;9.10;6.50;;;;;;;1.30;57.78;99882.28;5092133;28;20040;-68
2021/01/16 10:34:18;;;;;;;15.10;7.15;;;;;;;1.32;58.01;99876.03;5091562;28;20040;-67
2021/01/16 10:36:45;;;;;;;10.02;6.40;;;;;;;1.33;58.03;99877.69;5090483;28;20048;-67
2021/01/16 10:39:13;;;;;;;7.55;6.03;;;;;;;1.26;57.33;99881.66;5090520;28;20473;-68
2021/01/16 10:41:42;;;;;;;8.15;6.05;;;;;;;1.28;57.42;99871.97;5091807;28;20044;-67
2021/01/16 10:44:10;;;;;;;8.55;6.00;;;;;;;1.35;57.62;99868.00;5091748;28;20110;-67
2021/01/16 10:46:40;;;;;;;8.13;6.47;;;;;;;1.34;57.27;99873.31;5091907;28;20407;-66
2021/01/16 10:49:13;;;;;;;6.40;5.13;;;;;;;1.30;56.76;99869.25;5094590;28;20461;-66
2021/01/16 10:51:41;;;;;;;10.13;5.32;;;;;;;1.36;56.91;99856.63;5094302;28;20044;-66
2021/01/16 10:54:08;;;;;;;8.27;5.75;;;;;;;1.38;56.65;99844.31;5095608;28;20040;-66
2021/01/16 10:56:35;;;;;;;9.18;6.90;;;;;;;1.38;56.61;99848.69;5095293;28;20111;-66
2021/01/16 10:59:10;;;;;;;9.95;6.90;;;;;;;1.41;56.56;99840.69;5095397;28;20432;-67
2021/01/16 11:01:47;;;;;;;12.45;6.20;;;;;;;1.45;56.46;99839.50;5095493;28;20457;-67
2021/01/16 11:04:21;;;;;;;9.52;6.03;;;;;;;1.42;56.29;99830.13;5095101;28;20052;-67
2021/01/16 11:06:48;;;;;;;;;;;;;;;1.41;56.02;99830.25;5095786;28;20048;-67
2021/01/16 11:09:45;;;;;;;6.82;4.75;;;;;;;1.33;55.65;99836.00;5095581;28;20464;-66
2021/01/16 11:12:23;;;;;;;7.65;4.97;;;;;;;1.29;55.80;99831.13;5093392;28;20052;-66
2021/01/16 11:14:50;;;;;;;11.07;7.85;;;;;;;1.27;56.65;99831.25;5095341;28;20050;-66
2021/01/16 11:17:17;;;;;;;12.43;8.55;;;;;;;1.36;57.02;99827.97;5095167;28;20051;-66
2021/01/16 11:19:46;;;;;;;12.98;9.45;;;;;;;1.48;57.27;99819.28;5095642;28;20044;-67
2021/01/16 11:22:15;;;;;;;15.95;10.00;;;;;;;1.59;57.58;99828.09;5096680;28;20044;-67
2021/01/16 11:25:12;;;;;;;14.98;10.02;;;;;;;1.72;57.48;99826.28;5095410;28;20089;-67
2021/01/16 11:28:04;;;;;;;16.52;9.15;;;;;;;1.70;57.40;99815.94;5082636;28;20060;-67
2021/01/16 11:30:38;;;;;;;11.57;8.35;;;;;;;1.75;57.31;99818.22;5095111;28;20490;-67
2021/01/16 11:33:12;;;;;;;14.55;10.27;;;;;;;1.70;57.37;99808.13;5095089;28;20040;-67
2021/01/16 11:35:41;;;;;;;;;;;;;;;1.59;57.07;99802.03;5093802;28;20048;-67
2021/01/16 11:38:36;;;;;;;13.20;9.40;;;;;;;1.63;57.22;99798.25;5094897;28;20378;-67
2021/01/16 11:41:03;;;;;;;12.88;9.82;;;;;;;1.68;57.32;99791.78;5094449;28;20043;-67